Time;durP1;ratioP1;P1;durP2;ratioP2;P2;SDS_P1;SDS_P2;PMS_P1;PMS_P2;Temp;Humidity;BMP_temperature;BMP_pressure;BME280_temperature;BME280_humidity;BME280_pressure;Samples;Min_cycle;Max_cycle;Signal;HPM_P1;HPM_P2
2023/03/23 00:00:51;;;;;;;7.43;4.72;;;10.10;99.90;;;;;;4952899;28;20051;-88
2023/03/23 00:03:18;;;;;;;9.63;5.70;;;10.10;99.90;;;;;;4953693;28;20047;-87
2023/03/23 00:05:49;;;;;;;12.13;8.20;;;10.10;99.90;;;;;;4935727;28;20049;-87
2023/03/23 00:08:17;;;;;;;12.50;8.73;;;10.10;99.90;;;;;;4970224;28;20070;-88
2023/03/23 00:10:43;;;;;;;17.80;11.75;;;10.20;99.90;;;;;;4968937;28;20549;-88
2023/03/23 00:13:11;;;;;;;19.63;11.93;;;10.30;99.90;;;;;;4968701;28;20133;-87
2023/03/23 00:15:43;;;;;;;18.15;12.40;;;10.30;99.90;;;;;;4937354;28;20129;-87
2023/03/23 00:18:20;;;;;;;16.75;12.32;;;10.40;99.90;;;;;;4953477;28;20035;-87
2023/03/23 00:20:48;;;;;;;23.35;15.52;;;10.40;99.90;;;;;;4952016;28;20410;-87
2023/03/23 00:23:20;;;;;;;20.23;13.55;;;10.50;99.90;;;;;;4952852;28;20057;-87
2023/03/23 00:25:48;;;;;;;23.17;15.00;;;10.50;99.90;;;;;;4953408;28;20055;-87
2023/03/23 00:28:30;;;;;;;19.13;14.13;;;10.50;99.90;;;;;;4952492;28;20046;-87
2023/03/23 00:31:05;;;;;;;20.33;14.40;;;10.90;99.90;;;;;;4963125;28;20054;-86
2023/03/23 00:34:00;;;;;;;20.65;14.23;;;10.60;99.90;;;;;;4971778;28;20042;-86
2023/03/23 00:36:31;;;;;;;21.13;15.02;;;10.70;99.90;;;;;;4954474;28;20506;-86
2023/03/23 00:39:02;;;;;;;22.58;15.05;;;10.70;99.90;;;;;;4955030;28;20030;-86
2023/03/23 00:41:34;;;;;;;22.55;16.05;;;10.60;99.90;;;;;;4954532;28;20065;-86
2023/03/23 00:44:00;;;;;;;26.85;15.50;;;10.70;99.90;;;;;;4971673;28;20073;-86
2023/03/23 00:46:27;;;;;;;24.17;15.30;;;10.60;99.90;;;;;;4971352;28;20062;-86
2023/03/23 00:48:56;;;;;;;26.20;16.60;;;10.60;99.90;;;;;;4969822;28;20129;-87
2023/03/23 00:51:31;;;;;;;25.25;15.85;;;10.30;99.90;;;;;;4954662;28;20133;-86
2023/03/23 00:54:03;;;;;;;24.10;15.50;;;10.60;99.90;;;;;;4956150;28;20046;-87
2023/03/23 00:56:29;;;;;;;25.92;16.25;;;10.60;99.90;;;;;;4955370;28;20080;-88
2023/03/23 00:59:04;;;;;;;25.08;14.27;;;10.60;99.90;;;;;;4971941;28;20070;-87
2023/03/23 01:01:38;;;;;;;20.48;12.55;;;10.60;99.90;;;;;;4972000;28;20050;-86
2023/03/23 01:04:12;;;;;;;20.35;11.63;;;10.30;99.90;;;;;;4971254;28;20075;-87
2023/03/23 01:06:40;;;;;;;15.25;10.25;;;10.70;99.90;;;;;;4971158;28;20089;-87
2023/03/23 01:09:14;;;;;;;15.35;8.23;;;10.60;99.90;;;;;;4971091;28;20093;-87
2023/03/23 01:11:47;;;;;;;7.70;3.80;;;10.70;99.90;;;;;;4987586;28;20077;-87
2023/03/23 01:14:22;;;;;;;6.80;4.03;;;10.50;99.90;;;;;;4955076;28;20533;-86
2023/03/23 01:16:47;;;;;;;6.38;3.00;;;10.40;99.90;;;;;;4954071;28;20046;-86
2023/03/23 01:19:15;;;;;;;5.70;2.72;;;10.30;99.90;;;;;;4955154;28;20401;-86
2023/03/23 01:21:47;;;;;;;7.55;2.92;;;10.30;99.90;;;;;;4953699;28;20138;-86
2023/03/23 01:24:22;;;;;;;5.20;2.38;;;10.30;99.90;;;;;;4954283;28;20085;-86
2023/03/23 01:26:55;;;;;;;5.68;2.88;;;10.30;99.90;;;;;;4954469;28;20444;-86
2023/03/23 01:29:21;;;;;;;8.20;3.00;;;10.20;99.90;;;;;;4970889;28;20521;-86
2023/03/23 01:31:46;;;;;;;5.32;2.80;;;10.20;99.90;;;;;;4935175;28;20039;-87
2023/03/23 01:34:15;;;;;;;6.10;2.85;;;10.10;99.90;;;;;;4952825;28;20051;-86
2023/03/23 01:36:50;;;;;;;5.85;2.88;;;10.10;99.90;;;;;;4954401;28;20109;-86
2023/03/23 01:39:16;;;;;;;6.85;3.72;;;10.10;99.90;;;;;;4954689;28;20042;-86
2023/03/23 01:41:42;;;;;;;10.93;4.97;;;10.20;99.90;;;;;;4955029;28;20502;-86
2023/03/23 01:44:30;;;;;;;7.15;4.43;;;10.10;99.90;;;;;;4938691;28;20069;-86
2023/03/23 01:46:57;;;;;;;9.98;5.22;;;10.20;99.90;;;;;;4938285;28;20078;-86
2023/03/23 01:49:36;;;;;;;9.18;5.63;;;10.20;99.90;;;;;;4955186;28;20547;-86
2023/03/23 01:52:07;;;;;;;17.60;6.25;;;10.20;99.90;;;;;;4953583;28;20042;-86
2023/03/23 01:54:36;;;;;;;15.18;6.85;;;10.30;99.90;;;;;;4954906;28;20047;-87
2023/03/23 01:57:07;;;;;;;11.95;6.65;;;10.30;99.90;;;;;;4955206;28;20399;-87
2023/03/23 01:59:34;;;;;;;15.68;7.13;;;10.40;99.90;;;;;;4954090;28;20046;-87
2023/03/23 02:02:01;;;;;;;10.80;6.82;;;10.40;99.90;;;;;;4955178;28;20055;-86
2023/03/23 02:04:29;;;;;;;12.35;6.15;;;10.50;99.90;;;;;;4955223;28;20503;-86
2023/03/23 02:06:57;;;;;;;12.23;7.18;;;10.50;99.90;;;;;;4953370;28;20043;-86
2023/03/23 02:09:25;;;;;;;12.48;6.32;;;10.60;99.90;;;;;;4955166;28;20047;-86
2023/03/23 02:11:52;;;;;;;17.48;6.25;;;10.60;99.90;;;;;;4954696;28;20213;-86
2023/03/23 02:14:18;;;;;;;11.45;5.82;;;10.50;99.90;;;;;;4954678;28;20054;-86
2023/03/23 02:16:50;;;;;;;9.70;6.07;;;10.60;99.90;;;;;;4954295;28;20066;-86
2023/03/23 02:19:26;;;;;;;14.27;6.20;;;10.70;99.90;;;;;;4938331;28;20051;-87
2023/03/23 02:21:57;;;;;;;14.77;5.72;;;10.70;99.90;;;;;;4938228;28;20446;-86
2023/03/23 02:24:43;;;;;;;13.00;5.47;;;10.60;99.90;;;;;;4938206;28;20050;-86
2023/03/23 02:27:31;;;;;;;13.23;5.88;;;10.60;99.90;;;;;;4937284;28;20047;-86
2023/03/23 02:30:11;;;;;;;10.93;5.38;;;10.70;99.90;;;;;;4954277;28;20096;-86
2023/03/23 02:33:08;;;;;;;11.13;5.40;;;10.70;99.90;;;;;;4954113;28;20047;-86
2023/03/23 02:36:01;;;;;;;12.30;5.65;;;10.70;99.90;;;;;;4952018;28;20055;-86
2023/03/23 02:38:37;;;;;;;10.35;5.50;;;10.80;99.90;;;;;;4954145;28;20119;-86
2023/03/23 02:41:03;;;;;;;13.25;5.20;;;10.80;99.90;;;;;;4952570;28;20141;-87
2023/03/23 02:43:34;;;;;;;10.98;5.13;;;10.80;99.90;;;;;;4938436;28;20073;-87
2023/03/23 02:46:00;;;;;;;8.98;5.05;;;10.80;99.90;;;;;;4953083;28;20042;-86
2023/03/23 02:48:30;;;;;;;14.00;4.47;;;10.80;99.90;;;;;;4954409;28;20113;-86
2023/03/23 02:50:57;;;;;;;10.60;4.80;;;10.80;99.90;;;;;;4952493;28;20085;-86
2023/03/23 02:53:25;;;;;;;13.63;5.35;;;10.80;99.90;;;;;;4954042;28;20049;-86
2023/03/23 02:55:54;;;;;;;9.80;4.25;;;10.80;99.90;;;;;;4953128;28;20439;-87
2023/03/23 02:58:21;;;;;;;12.95;4.38;;;10.80;99.90;;;;;;4954371;28;20526;-85
2023/03/23 03:00:49;;;;;;;10.13;4.53;;;10.80;99.90;;;;;;4953871;28;20138;-86
2023/03/23 03:03:19;;;;;;;10.25;4.65;;;10.80;99.90;;;;;;4954512;28;20047;-86
2023/03/23 03:05:54;;;;;;;9.75;3.95;;;10.80;99.90;;;;;;4953117;28;20034;-86
2023/03/23 03:08:24;;;;;;;11.10;4.50;;;10.80;99.90;;;;;;4938577;28;20840;-86
2023/03/23 03:10:58;;;;;;;7.07;4.00;;;10.80;99.90;;;;;;4937686;28;20047;-86
2023/03/23 03:13:35;;;;;;;13.13;3.83;;;10.90;99.90;;;;;;4954542;28;20047;-86
2023/03/23 03:16:07;;;;;;;12.82;4.22;;;10.90;99.90;;;;;;4954302;28;20054;-86
2023/03/23 03:18:45;;;;;;;9.45;3.70;;;10.80;99.90;;;;;;4955244;28;20046;-86
2023/03/23 03:21:15;;;;;;;6.40;3.67;;;10.80;99.90;;;;;;4970089;28;20081;-86
2023/03/23 03:23:43;;;;;;;8.88;4.15;;;10.80;99.90;;;;;;4938647;28;20047;-86
2023/03/23 03:26:12;;;;;;;7.97;3.75;;;10.90;99.90;;;;;;4954784;28;20034;-86
2023/03/23 03:28:38;;;;;;;8.13;3.78;;;10.80;99.90;;;;;;4955088;28;20050;-86
2023/03/23 03:31:06;;;;;;;10.82;3.55;;;10.80;99.90;;;;;;4956994;28;20043;-86
2023/03/23 03:33:33;;;;;;;9.38;4.00;;;10.80;99.90;;;;;;4973897;28;20038;-86
2023/03/23 03:36:03;;;;;;;10.27;3.50;;;10.80;99.90;;;;;;4956807;28;20038;-86
2023/03/23 03:38:30;;;;;;;9.80;3.50;;;10.70;99.90;;;;;;4956908;28;20078;-85
2023/03/23 03:40:56;;;;;;;8.95;3.55;;;10.70;99.90;;;;;;4956776;28;20054;-86
2023/03/23 03:43:21;;;;;;;7.93;3.60;;;10.70;99.90;;;;;;4957607;28;20105;-86
2023/03/23 03:45:47;;;;;;;8.38;3.70;;;10.70;99.90;;;;;;4956391;28;20504;-86
2023/03/23 03:48:13;;;;;;;8.10;3.75;;;10.70;99.90;;;;;;4957784;28;20044;-87
2023/03/23 03:50:39;;;;;;;10.60;3.95;;;10.70;99.90;;;;;;4956252;28;20505;-86
2023/03/23 03:53:06;;;;;;;9.10;3.92;;;10.70;99.90;;;;;;4956881;28;20050;-86
2023/03/23 03:55:35;;;;;;;9.18;3.50;;;10.70;99.90;;;;;;4973249;28;20053;-85
2023/03/23 03:58:08;;;;;;;12.73;4.00;;;10.70;99.90;;;;;;4955655;28;20047;-88
2023/03/23 04:00:47;;;;;;;;;;;10.70;99.90;;;;;;4957768;28;20054;-88
2023/03/23 04:03:21;;;;;;;12.77;3.78;;;10.60;99.90;;;;;;4957005;28;19984;-89
2023/03/23 04:05:52;;;;;;;9.02;4.03;;;10.60;99.90;;;;;;4956268;28;20454;-88
2023/03/23 04:08:18;;;;;;;9.20;4.07;;;10.50;99.90;;;;;;4956265;28;20410;-87
2023/03/23 04:10:45;;;;;;;10.85;3.30;;;10.50;99.90;;;;;;4952825;28;20058;-88
2023/03/23 04:13:16;;;;;;;10.52;3.08;;;10.40;99.90;;;;;;4972091;28;20120;-87
2023/03/23 04:15:49;;;;;;;6.05;2.65;;;10.30;99.90;;;;;;4971798;28;20486;-88
2023/03/23 04:18:19;;;;;;;5.53;2.00;;;10.30;99.90;;;;;;4956052;28;20132;-87
2023/03/23 04:20:47;;;;;;;5.38;1.27;;;10.30;99.90;;;;;;4971397;28;20050;-87
2023/03/23 04:23:19;;;;;;;4.00;1.10;;;10.20;99.90;;;;;;4955958;28;20049;-88
2023/03/23 04:26:03;;;;;;;3.67;0.77;;;10.10;99.90;;;;;;4956822;28;20161;-86
2023/03/23 04:28:33;;;;;;;2.80;0.52;;;10.00;99.90;;;;;;4956837;28;20101;-85
2023/03/23 04:31:05;;;;;;;2.47;0.57;;;9.90;99.90;;;;;;4956072;28;20077;-86
2023/03/23 04:33:31;;;;;;;3.22;1.20;;;9.80;99.90;;;;;;4971692;28;20152;-86
2023/03/23 04:36:19;;;;;;;5.10;1.13;;;9.90;99.90;;;;;;4956381;28;20354;-86
2023/03/23 04:38:45;;;;;;;3.90;1.25;;;9.80;99.90;;;;;;4955974;28;20082;-87
2023/03/23 04:41:24;;;;;;;5.38;1.60;;;9.80;99.90;;;;;;4953765;28;20092;-87
2023/03/23 04:43:52;;;;;;;7.20;1.42;;;9.80;99.90;;;;;;4972187;28;20069;-87
2023/03/23 04:46:19;;;;;;;4.47;1.33;;;9.90;99.90;;;;;;4971985;28;20120;-87
2023/03/23 04:48:45;;;;;;;5.88;1.20;;;9.80;99.90;;;;;;4955284;28;20042;-87
2023/03/23 04:51:12;;;;;;;4.95;1.02;;;9.80;99.90;;;;;;4970218;28;20104;-86
2023/03/23 04:53:38;;;;;;;6.20;1.65;;;9.70;99.90;;;;;;4955720;28;20034;-85
2023/03/23 04:56:03;;;;;;;7.72;2.00;;;9.70;99.90;;;;;;4970391;28;20427;-86
2023/03/23 04:58:33;;;;;;;6.85;1.25;;;9.70;99.90;;;;;;4971756;28;20062;-85
2023/03/23 05:01:00;;;;;;;11.40;1.50;;;9.70;99.90;;;;;;4970688;28;20121;-87
2023/03/23 05:03:26;;;;;;;8.98;1.70;;;9.70;99.90;;;;;;4971445;28;20494;-85
2023/03/23 05:05:53;;;;;;;4.20;1.10;;;9.70;99.90;;;;;;4970608;28;20046;-86
2023/03/23 05:08:21;;;;;;;9.20;1.83;;;9.70;99.90;;;;;;4954376;28;20628;-86
2023/03/23 05:10:54;;;;;;;9.35;2.40;;;9.70;99.90;;;;;;4974312;28;20057;-86
2023/03/23 05:13:20;;;;;;;9.40;1.92;;;9.70;99.90;;;;;;4974728;28;20108;-86
2023/03/23 05:15:46;;;;;;;9.65;2.35;;;9.70;99.90;;;;;;4958486;28;20047;-86
2023/03/23 05:18:12;;;;;;;10.35;2.47;;;9.70;99.90;;;;;;4958233;28;20042;-86
2023/03/23 05:20:38;;;;;;;12.40;2.60;;;9.70;99.90;;;;;;4974276;28;20128;-86
2023/03/23 05:23:05;;;;;;;9.68;2.38;;;9.80;99.90;;;;;;4974049;28;20398;-86
2023/03/23 05:25:36;;;;;;;13.00;2.85;;;9.70;99.90;;;;;;4958134;28;20181;-85
2023/03/23 05:28:03;;;;;;;15.80;3.60;;;9.80;99.90;;;;;;4972563;28;20042;-86
2023/03/23 05:30:29;;;;;;;10.57;3.33;;;9.80;99.90;;;;;;4957649;28;20136;-86
2023/03/23 05:32:55;;;;;;;18.92;3.65;;;10.00;99.90;;;;;;4958859;28;20101;-87
2023/03/23 05:35:22;;;;;;;15.75;3.40;;;10.00;99.90;;;;;;4973331;28;20573;-86
2023/03/23 05:37:48;;;;;;;12.27;3.42;;;10.00;99.90;;;;;;4957928;28;20390;-86
2023/03/23 05:40:15;;;;;;;21.70;4.28;;;10.10;99.90;;;;;;4957462;28;20042;-86
2023/03/23 05:42:41;;;;;;;15.32;3.17;;;10.10;99.90;;;;;;4957745;28;20058;-86
2023/03/23 05:45:10;;;;;;;15.70;3.72;;;10.10;99.90;;;;;;4972281;28;20132;-87
2023/03/23 05:47:56;;;;;;;13.85;3.42;;;10.20;99.90;;;;;;4958031;28;20415;-86
2023/03/23 05:50:22;;;;;;;13.18;3.30;;;10.10;99.90;;;;;;4956388;28;20419;-86
2023/03/23 05:52:48;;;;;;;24.02;3.72;;;10.20;99.90;;;;;;4957550;28;20042;-87
2023/03/23 05:55:14;;;;;;;19.92;3.28;;;10.10;99.90;;;;;;4957450;28;20081;-86
2023/03/23 05:57:40;;;;;;;20.30;4.03;;;10.10;99.90;;;;;;4956853;28;20086;-87
2023/03/23 06:00:14;;;;;;;26.55;4.10;;;10.10;99.90;;;;;;4956915;28;20073;-86
2023/03/23 06:02:46;;;;;;;22.70;4.85;;;10.10;99.90;;;;;;4973529;28;20053;-87
2023/03/23 06:05:13;;;;;;;20.10;3.83;;;10.10;99.90;;;;;;4971675;28;20101;-87
2023/03/23 06:07:39;;;;;;;20.55;3.63;;;10.10;99.90;;;;;;4957279;28;20042;-86
2023/03/23 06:10:06;;;;;;;22.92;3.33;;;10.10;99.90;;;;;;4957039;28;20054;-86
2023/03/23 06:12:32;;;;;;;25.02;3.47;;;10.10;99.90;;;;;;4957173;28;20042;-87
2023/03/23 06:15:00;;;;;;;20.40;3.47;;;10.10;99.90;;;;;;4957393;28;20564;-87
2023/03/23 06:17:26;;;;;;;23.33;3.13;;;10.10;99.90;;;;;;4952605;28;20482;-86
2023/03/23 06:19:52;;;;;;;27.13;3.78;;;10.10;99.90;;;;;;4946333;28;20042;-87
2023/03/23 06:22:18;;;;;;;25.10;3.72;;;10.30;99.90;;;;;;4944489;28;20514;-87
2023/03/23 06:24:44;;;;;;;24.92;5.00;;;10.20;99.90;;;;;;4945554;28;20046;-86
2023/03/23 06:27:10;;;;;;;24.73;3.97;;;10.20;99.90;;;;;;4945573;28;20058;-86
2023/03/23 06:29:36;;;;;;;29.85;5.13;;;10.20;99.90;;;;;;4961753;28;20057;-86
2023/03/23 06:32:04;;;;;;;24.83;3.55;;;10.30;99.90;;;;;;4953197;28;20043;-86
2023/03/23 06:34:30;;;;;;;24.13;3.95;;;10.30;99.90;;;;;;4937551;28;20082;-88
2023/03/23 06:36:57;;;;;;;28.98;4.13;;;10.30;99.90;;;;;;4958454;28;20079;-87
2023/03/23 06:39:23;;;;;;;22.45;3.90;;;10.30;99.90;;;;;;4956926;28;20482;-86
2023/03/23 06:41:49;;;;;;;20.40;3.47;;;10.30;99.90;;;;;;4955641;28;20077;-86
2023/03/23 06:44:15;;;;;;;24.38;3.85;;;10.30;99.90;;;;;;4956628;28;20057;-85
2023/03/23 06:46:41;;;;;;;21.20;3.90;;;10.30;99.90;;;;;;4956188;28;20050;-85
2023/03/23 06:49:08;;;;;;;22.95;3.70;;;10.30;99.90;;;;;;4956412;28;20118;-86
2023/03/23 06:51:34;;;;;;;20.15;2.60;;;10.20;99.90;;;;;;4971672;28;20352;-86
2023/03/23 06:54:00;;;;;;;15.90;2.83;;;10.10;99.90;;;;;;4972127;28;20054;-86
2023/03/23 06:56:26;;;;;;;13.30;2.15;;;10.10;99.90;;;;;;4956813;28;20097;-86
2023/03/23 06:58:52;;;;;;;16.65;2.58;;;10.00;99.90;;;;;;4956446;28;20058;-86
2023/03/23 07:01:18;;;;;;;15.15;2.17;;;10.00;99.90;;;;;;4955267;28;20437;-86
2023/03/23 07:03:44;;;;;;;12.98;2.25;;;10.00;99.90;;;;;;4956786;28;20116;-87
2023/03/23 07:06:10;;;;;;;12.18;2.58;;;9.90;99.90;;;;;;4955074;28;20038;-87
2023/03/23 07:08:36;;;;;;;9.82;1.88;;;9.90;99.90;;;;;;4955199;28;20045;-86
2023/03/23 07:11:03;;;;;;;9.27;1.83;;;9.90;99.90;;;;;;4956491;28;20513;-86
2023/03/23 07:13:28;;;;;;;17.58;2.10;;;9.90;99.90;;;;;;4956239;28;20387;-86
2023/03/23 07:15:54;;;;;;;13.18;2.38;;;9.80;99.90;;;;;;4955382;28;20058;-86
2023/03/23 07:18:21;;;;;;;20.52;3.15;;;9.90;99.90;;;;;;4955586;28;20060;-86
2023/03/23 07:20:49;;;;;;;17.52;3.08;;;9.90;99.90;;;;;;4971721;28;20541;-86
2023/03/23 07:23:15;;;;;;;15.70;2.70;;;9.90;99.90;;;;;;4955471;28;20038;-85
2023/03/23 07:25:41;;;;;;;15.93;3.03;;;10.00;99.90;;;;;;4972153;28;20398;-86
2023/03/23 07:28:06;;;;;;;19.13;2.97;;;10.10;99.90;;;;;;4955483;28;20043;-86
2023/03/23 07:30:32;;;;;;;18.13;3.50;;;10.10;99.90;;;;;;4951554;28;20418;-86
2023/03/23 07:32:58;;;;;;;17.40;3.80;;;10.20;99.90;;;;;;4953200;28;20482;-86
2023/03/23 07:35:25;;;;;;;27.75;3.55;;;10.20;99.90;;;;;;4954237;28;20578;-87
2023/03/23 07:37:51;;;;;;;25.73;3.60;;;10.30;99.90;;;;;;4955420;28;20050;-86
2023/03/23 07:40:18;;;;;;;29.58;4.13;;;10.30;99.90;;;;;;4987762;28;20050;-86
2023/03/23 07:42:45;;;;;;;28.70;4.72;;;10.50;99.90;;;;;;4971080;28;20046;-85
2023/03/23 07:45:13;;;;;;;32.05;5.28;;;10.50;99.90;;;;;;4955707;28;20489;-86
2023/03/23 07:47:40;;;;;;;27.33;5.70;;;10.60;99.90;;;;;;4987058;28;20361;-86
2023/03/23 07:50:06;;;;;;;28.13;4.75;;;10.60;99.90;;;;;;4985692;28;20493;-85
2023/03/23 07:52:33;;;;;;;29.52;4.80;;;10.70;99.90;;;;;;4970869;28;20096;-85
2023/03/23 07:55:01;;;;;;;34.00;5.38;;;10.70;99.90;;;;;;4955766;28;20054;-85
2023/03/23 07:57:27;;;;;;;31.55;5.30;;;10.70;99.90;;;;;;4955247;28;20061;-85
2023/03/23 07:59:53;;;;;;;32.30;5.40;;;10.80;99.90;;;;;;4955562;28;20049;-85
2023/03/23 08:02:19;;;;;;;28.13;4.88;;;10.90;99.90;;;;;;4972041;28;20053;-85
2023/03/23 08:04:45;;;;;;;35.60;6.65;;;11.00;99.90;;;;;;4970894;28;20046;-85
2023/03/23 08:07:12;;;;;;;27.30;4.78;;;11.00;99.90;;;;;;4986927;28;20061;-85
2023/03/23 08:09:38;;;;;;;30.42;5.03;;;11.00;99.90;;;;;;4987411;28;20140;-85
2023/03/23 08:12:04;;;;;;;30.08;5.13;;;11.10;99.90;;;;;;4970675;28;20495;-85
2023/03/23 08:14:30;;;;;;;26.77;5.82;;;11.10;99.90;;;;;;4988058;28;20042;-85
2023/03/23 08:16:57;;;;;;;37.13;5.50;;;11.10;99.90;;;;;;4987017;28;20137;-85
2023/03/23 08:19:23;;;;;;;36.10;5.32;;;11.00;99.90;;;;;;4970893;28;20052;-86
2023/03/23 08:21:49;;;;;;;35.58;6.15;;;11.00;99.90;;;;;;4970442;28;20046;-87
2023/03/23 08:24:15;;;;;;;38.33;5.40;;;11.00;99.90;;;;;;4971972;28;20062;-85
2023/03/23 08:26:41;;;;;;;32.60;5.85;;;11.00;99.90;;;;;;4971086;28;20474;-86
2023/03/23 08:29:08;;;;;;;29.90;5.45;;;11.10;99.90;;;;;;4971544;28;20096;-86
2023/03/23 08:31:35;;;;;;;26.27;4.47;;;11.10;99.90;;;;;;4954895;28;20050;-86
2023/03/23 08:34:02;;;;;;;31.65;5.50;;;11.10;99.90;;;;;;4954296;28;20086;-86
2023/03/23 08:36:28;;;;;;;31.08;6.05;;;11.10;99.90;;;;;;4970097;28;20050;-86
2023/03/23 08:38:54;;;;;;;35.58;5.25;;;11.10;99.90;;;;;;4954735;28;20097;-85
2023/03/23 08:41:25;;;;;;;28.35;5.07;;;11.10;99.90;;;;;;4968795;28;20137;-85
2023/03/23 08:44:02;;;;;;;;;;;;;;;;;;;;;
2023/03/23 08:46:28;;;;;;;30.45;5.35;;;11.20;99.90;;;;;;4970255;28;20042;-85
2023/03/23 08:48:54;;;;;;;31.38;5.43;;;11.30;99.90;;;;;;4954640;28;20069;-85
2023/03/23 08:51:20;;;;;;;34.15;5.65;;;11.30;99.90;;;;;;4953810;28;20406;-85
2023/03/23 08:53:46;;;;;;;33.22;5.57;;;11.30;99.90;;;;;;4953742;28;20050;-86
2023/03/23 08:56:13;;;;;;;33.17;5.22;;;11.40;99.90;;;;;;4954561;28;20039;-84
2023/03/23 08:58:39;;;;;;;28.40;5.57;;;11.50;99.90;;;;;;4954574;28;20421;-85
2023/03/23 09:01:06;;;;;;;35.50;5.93;;;11.60;99.90;;;;;;4953169;28;20046;-85
2023/03/23 09:03:34;;;;;;;34.15;5.60;;;11.70;99.90;;;;;;4970746;28;20038;-86
2023/03/23 09:06:04;;;;;;;30.95;5.15;;;11.90;99.90;;;;;;4953844;28;20419;-85
2023/03/23 09:08:30;;;;;;;31.08;5.43;;;12.00;99.90;;;;;;4954266;28;20482;-86
2023/03/23 09:10:59;;;;;;;34.67;5.30;;;12.10;99.90;;;;;;4954455;28;20129;-86
2023/03/23 09:13:25;;;;;;;27.23;5.00;;;12.20;99.90;;;;;;4955049;28;20051;-85
2023/03/23 09:15:51;;;;;;;35.65;5.18;;;12.20;99.90;;;;;;4969061;28;20042;-85
2023/03/23 09:18:18;;;;;;;38.75;6.47;;;12.20;99.90;;;;;;4954616;28;20417;-85
2023/03/23 09:20:45;;;;;;;32.03;5.70;;;12.20;99.90;;;;;;4953444;28;20117;-85
2023/03/23 09:23:12;;;;;;;32.65;5.03;;;12.20;99.90;;;;;;4969995;28;20066;-85
2023/03/23 09:25:39;;;;;;;26.80;6.30;;;12.30;99.90;;;;;;4954373;28;20038;-85
2023/03/23 09:28:05;;;;;;;26.17;5.93;;;12.50;99.90;;;;;;4937320;28;20411;-85
2023/03/23 09:30:33;;;;;;;32.65;6.68;;;12.60;99.90;;;;;;4949997;28;20558;-85
2023/03/23 09:33:01;;;;;;;30.05;5.38;;;12.80;99.90;;;;;;4950933;28;20398;-85
2023/03/23 09:35:27;;;;;;;28.85;5.63;;;12.80;99.90;;;;;;4965266;28;20050;-85
2023/03/23 09:37:53;;;;;;;22.80;4.68;;;12.80;99.90;;;;;;4934463;28;20130;-85
2023/03/23 09:40:24;;;;;;;23.52;4.78;;;12.70;99.90;;;;;;4950695;28;20058;-85
2023/03/23 09:43:03;;;;;;;34.13;5.75;;;12.70;99.90;;;;;;4949465;28;20554;-85
2023/03/23 09:45:43;;;;;;;27.85;5.78;;;12.60;99.90;;;;;;4951101;28;20054;-84
2023/03/23 09:48:23;;;;;;;32.28;6.53;;;12.60;99.90;;;;;;4934809;28;20561;-84
2023/03/23 09:50:57;;;;;;;32.72;5.47;;;12.60;99.90;;;;;;4948924;28;20093;-84
2023/03/23 09:53:35;;;;;;;29.52;5.10;;;12.50;99.90;;;;;;4950734;28;20218;-84
2023/03/23 09:56:03;;;;;;;28.60;5.03;;;12.50;99.90;;;;;;4951056;28;20134;-84
2023/03/23 09:58:36;;;;;;;26.85;5.10;;;12.60;99.90;;;;;;4953655;28;20789;-85
2023/03/23 10:01:06;;;;;;;;;;;12.80;99.90;;;;;;4954244;28;20380;-83
2023/03/23 10:03:37;;;;;;;28.35;5.10;;;12.90;99.90;;;;;;4952890;28;19922;-84
2023/03/23 10:06:04;;;;;;;29.83;4.95;;;13.10;99.90;;;;;;4953196;28;20133;-84
2023/03/23 10:08:32;;;;;;;32.60;5.28;;;13.20;99.90;;;;;;4953722;28;20051;-84
2023/03/23 10:11:21;;;;;;;22.58;4.63;;;13.30;99.90;;;;;;4937226;28;20046;-84
2023/03/23 10:14:06;;;;;;;22.77;5.03;;;13.40;99.90;;;;;;4953836;28;20047;-84
2023/03/23 10:16:40;;;;;;;33.88;5.85;;;13.30;99.90;;;;;;4937511;28;20509;-84
2023/03/23 10:19:31;;;;;;;23.27;4.53;;;13.20;99.90;;;;;;4953280;28;20042;-84
2023/03/23 10:22:06;;;;;;;24.33;5.03;;;13.10;99.90;;;;;;4953229;28;20121;-84
2023/03/23 10:24:52;;;;;;;28.02;4.53;;;13.00;99.90;;;;;;4937212;28;20050;-84
2023/03/23 10:27:23;;;;;;;23.20;4.60;;;12.90;99.90;;;;;;4969595;28;20054;-84
2023/03/23 10:29:56;;;;;;;27.52;4.78;;;13.00;99.90;;;;;;4937441;28;20051;-84
2023/03/23 10:32:39;;;;;;;32.13;5.20;;;13.10;99.90;;;;;;4936487;28;20047;-84
2023/03/23 10:35:10;;;;;;;40.65;5.47;;;13.20;99.90;;;;;;4952207;28;20428;-84
2023/03/23 10:37:43;;;;;;;22.33;4.78;;;13.40;99.90;;;;;;4953502;28;20051;-84
2023/03/23 10:40:20;;;;;;;28.63;4.95;;;13.50;99.90;;;;;;4952347;28;20046;-83
2023/03/23 10:42:47;;;;;;;23.88;4.32;;;13.50;99.90;;;;;;4952645;28;20121;-84
2023/03/23 10:45:19;;;;;;;29.48;4.78;;;13.40;99.90;;;;;;4953159;28;20051;-84
2023/03/23 10:47:55;;;;;;;28.13;4.68;;;13.10;99.90;;;;;;4951914;28;20459;-84
2023/03/23 10:50:27;;;;;;;26.20;5.00;;;13.00;99.90;;;;;;4935885;28;20133;-84
2023/03/23 10:52:57;;;;;;;27.23;5.22;;;13.10;99.90;;;;;;4952424;28;20057;-84
2023/03/23 10:55:26;;;;;;;35.55;5.88;;;13.10;99.90;;;;;;4968674;28;20051;-84
2023/03/23 10:58:04;;;;;;;33.10;6.47;;;13.30;99.90;;;;;;4953352;28;20050;-84
2023/03/23 11:00:31;;;;;;;22.25;4.88;;;13.60;99.90;;;;;;4936357;28;20199;-83
2023/03/23 11:03:21;;;;;;;23.33;4.90;;;13.80;99.90;;;;;;4953004;28;20130;-83
2023/03/23 11:05:57;;;;;;;23.50;4.88;;;14.00;99.90;;;;;;4935535;28;20661;-83
2023/03/23 11:08:25;;;;;;;25.42;4.68;;;14.20;99.90;;;;;;4951245;28;20054;-83
2023/03/23 11:10:55;;;;;;;20.25;4.30;;;14.40;99.90;;;;;;4968565;28;20387;-81
2023/03/23 11:13:27;;;;;;;21.65;4.65;;;14.50;99.90;;;;;;4952340;28;20119;-81
2023/03/23 11:15:53;;;;;;;31.05;4.07;;;14.50;99.90;;;;;;4951716;28;20050;-81
2023/03/23 11:18:21;;;;;;;25.02;4.55;;;14.30;99.90;;;;;;4936290;28;20051;-81
2023/03/23 11:20:50;;;;;;;24.67;4.53;;;14.30;99.90;;;;;;4950971;28;20061;-81
2023/03/23 11:23:27;;;;;;;18.63;3.53;;;14.40;99.90;;;;;;4968104;28;20105;-81
2023/03/23 11:25:57;;;;;;;25.92;4.63;;;14.40;99.90;;;;;;4952266;28;20155;-81
2023/03/23 11:28:28;;;;;;;22.30;3.67;;;14.40;99.90;;;;;;4951690;28;20039;-82
2023/03/23 11:30:55;;;;;;;18.77;3.80;;;14.30;99.90;;;;;;4951851;28;20642;-81
2023/03/23 11:33:24;;;;;;;19.27;2.97;;;14.50;99.90;;;;;;4952611;28;20051;-82
2023/03/23 11:35:53;;;;;;;21.67;3.65;;;14.70;99.90;;;;;;4950511;28;20097;-81
2023/03/23 11:38:21;;;;;;;19.00;4.07;;;14.90;99.90;;;;;;4968296;28;20047;-81
2023/03/23 11:40:50;;;;;;;20.55;3.60;;;15.00;99.90;;;;;;4951236;28;20039;-81
2023/03/23 11:43:22;;;;;;;21.77;3.55;;;15.00;99.90;;;;;;4935554;28;20050;-81
2023/03/23 11:46:11;;;;;;;21.90;3.22;;;15.00;99.90;;;;;;4935723;28;20197;-82
2023/03/23 11:48:49;;;;;;;19.33;3.60;;;14.80;99.90;;;;;;4968090;28;20609;-81
2023/03/23 11:51:27;;;;;;;24.23;3.90;;;14.70;99.90;;;;;;4950000;28;20051;-82
2023/03/23 11:54:02;;;;;;;17.98;3.17;;;14.60;99.90;;;;;;4951746;28;20490;-82
2023/03/23 11:56:33;;;;;;;18.40;3.47;;;14.70;99.90;;;;;;4935379;28;20051;-82
2023/03/23 11:58:59;;;;;;;18.75;3.60;;;14.70;99.90;;;;;;4952336;28;20131;-83
2023/03/23 12:01:27;;;;;;;17.98;3.33;;;14.60;99.90;;;;;;4951984;28;20043;-82
2023/03/23 12:03:59;;;;;;;15.35;3.20;;;14.60;99.90;;;;;;4941383;28;20057;-84
2023/03/23 12:06:36;;;;;;;17.15;3.58;;;14.60;99.90;;;;;;4943801;28;20049;-83
2023/03/23 12:09:16;;;;;;;16.10;3.05;;;14.80;99.90;;;;;;4969667;28;20105;-83
2023/03/23 12:11:48;;;;;;;14.88;2.45;;;14.80;99.90;;;;;;4970539;28;20045;-83
2023/03/23 12:14:14;;;;;;;18.65;3.85;;;14.80;99.90;;;;;;4954586;28;20058;-84
2023/03/23 12:17:01;;;;;;;17.17;2.85;;;14.80;99.90;;;;;;4954722;28;20038;-85
2023/03/23 12:19:39;;;;;;;18.25;2.60;;;14.60;99.90;;;;;;4954665;28;20427;-82
2023/03/23 12:22:33;;;;;;;19.30;3.63;;;14.60;99.90;;;;;;4970169;28;20116;-85
2023/03/23 12:25:12;;;;;;;18.10;3.15;;;14.60;99.90;;;;;;4953864;28;20073;-83
2023/03/23 12:27:43;;;;;;;13.55;3.20;;;14.60;99.90;;;;;;4941801;28;20213;-82
2023/03/23 12:30:21;;;;;;;14.20;2.88;;;14.60;99.90;;;;;;4935689;28;20833;-83
2023/03/23 12:32:58;;;;;;;13.88;3.03;;;14.60;99.90;;;;;;4944086;28;20505;-83
2023/03/23 12:35:49;;;;;;;19.08;2.50;;;14.70;99.90;;;;;;4960311;28;20046;-84
2023/03/23 12:38:28;;;;;;;18.70;3.22;;;14.70;99.90;;;;;;4961339;28;20054;-83
2023/03/23 12:41:14;;;;;;;18.13;3.55;;;14.70;99.90;;;;;;4945251;28;20065;-83
2023/03/23 12:43:51;;;;;;;11.57;2.13;;;14.60;99.90;;;;;;4949552;28;20042;-83
2023/03/23 12:46:30;;;;;;;13.75;2.65;;;14.40;99.90;;;;;;4966836;28;20046;-83
2023/03/23 12:49:11;;;;;;;20.35;3.38;;;14.30;99.90;;;;;;4952563;28;20042;-83
2023/03/23 12:51:48;;;;;;;14.82;2.78;;;14.20;99.90;;;;;;4964612;28;20045;-83
2023/03/23 12:54:36;;;;;;;15.10;2.38;;;14.20;99.90;;;;;;4949561;28;20049;-82
2023/03/23 12:57:11;;;;;;;18.98;2.92;;;14.10;99.90;;;;;;4952953;28;20505;-85